Flight Track Log - Related Links

Times and Time Zones

All times are in EDT time to prevent confusion due to time zone crossing. See the TRS482 flight status page for this flight to view local times or setup timezone preferences in your user account.

Time Position Orientation Groundspeed Altitude Reporting Facility
EDT Latitude Longitude Course Direction KTS MPH feet Rate Location/Type
Mon 11:06:20 AM 33.6333 -84.3833 90° East 172 198 2,500  Level Atlanta TRACON
Mon 11:07:20 AM 33.6333 -84.3000 90° East 271 312 3,400 1,450 Climbing Atlanta TRACON
Mon 11:08:20 AM 33.6333 -84.2000 90° East 316 364 5,400 2,128 Climbing Atlanta TRACON
Mon 11:09:41 AM 33.6231 -84.0514 95° East 335 386 8,400 2,128 Climbing Atlanta Center
Mon 11:10:41 AM 33.6022 -83.9439 103° East 340 391 10,400 2,150 Climbing Atlanta Center
Mon 11:11:41 AM 33.5792 -83.8269 103° East 341 392 12,700 2,300 Climbing Atlanta Center
Mon 11:12:41 AM 33.5581 -83.7097 102° East 353 406 15,000 2,000 Climbing Atlanta Center
Mon 11:13:41 AM 33.5514 -83.5850 94° East 369 425 16,700 1,800 Climbing Atlanta Center
Mon 11:14:41 AM 33.5653 -83.4556 83° East 381 438 18,600 1,900 Climbing Atlanta Center
Mon 11:15:41 AM 33.5814 -83.3183 82° East 406 467 20,500 1,600 Climbing Atlanta Center
Mon 11:16:41 AM 33.5972 -83.1908 81° East 418 481 21,800 1,250 Climbing Atlanta Center
Mon 11:17:41 AM 33.6108 -83.0436 84° East 434 499 23,000 600 Climbing Atlanta Center
Mon 11:18:41 AM 33.6242 -82.8986 84° East 439 505 23,000 600 Level Atlanta Center
Mon 11:19:41 AM 33.6392 -82.7514 83° East 446 513 24,200 1,300 Climbing Atlanta Center
Mon 11:20:41 AM 33.6564 -82.5989 82° East 452 520 25,600 1,350 Climbing Atlanta Center
Mon 11:21:41 AM 33.6692 -82.4439 84° East 461 531 26,900 700 Climbing Atlanta Center
Mon 11:22:41 AM 33.6919 -82.2836 80° East 475 547 27,000 34 Climbing Atlanta Center
Mon 11:24:39 AM 33.7369 -81.9586 80° East 500 575 27,000  Level Jacksonville Center
Mon 11:25:39 AM 33.8089 -81.8278 56° Northeast 513 590 27,000  Level Jacksonville Center
Mon 11:26:39 AM 33.8869 -81.6867 56° Northeast 505 581 27,000  Level Jacksonville Center
Mon 11:27:39 AM 33.9689 -81.5403 56° Northeast 512 589 27,000  Level Jacksonville Center
Mon 11:28:39 AM 34.0489 -81.4014 55° Northeast 512 589 27,000  Level Jacksonville Center
Mon 11:29:39 AM 34.1242 -81.2619 57° Northeast 507 583 27,000  Level Jacksonville Center
Mon 11:30:39 AM 34.2017 -81.1200 57° Northeast 507 583 27,000  Level Jacksonville Center
Mon 11:31:39 AM 34.2831 -80.9800 55° Northeast 507 583 27,000  Level Jacksonville Center
Mon 11:32:39 AM 34.3561 -80.8478 56° Northeast 496 571 27,000 -333 Level Jacksonville Center
Mon 11:34:00 AM 34.4311 -80.6945 59° Northeast  Level FlightAware Approximate
Mon 11:34:39 AM 34.5056 -80.5747 59° Northeast 482 555 26,000  Level Jacksonville Center
Mon 11:37:57 AM 34.7336 -80.1536 44° Northeast 453 521 23,000 -703 Descending Washington Center
Mon 11:38:55 AM 34.8072 -80.0286 54° Northeast 448 516 23,000 -150 Level Washington Center
Mon 11:39:57 AM 34.9067 -79.9328 38° Northeast 448 516 22,700 -541 Descending Washington Center
Mon 11:40:57 AM 34.9961 -79.8286 44° Northeast 443 510 21,900 -915 Descending Washington Center
Mon 11:41:55 AM 35.0869 -79.7319 41° Northeast 436 502 20,900 -1,664 Descending Washington Center
Mon 11:42:56 AM 35.1739 -79.6347 42° Northeast 430 495 18,600 -2,463 Descending Washington Center
Mon 11:43:00 AM 35.1475 -79.6456 44° Northeast  Level FlightAware Approximate
Mon 11:44:09 AM 35.2983 -79.5342 33° Northeast 391 450 15,400  Level Washington Center
Mon 11:44:57 AM 35.3731 -79.4792 31° Northeast 398 458 12,300 -3,036 Descending Washington Center
Mon 11:45:32 AM 35.4328 -79.4414 27° Northeast 404 465 11,200 -1,627 Descending Washington Center
Mon 11:45:56 AM 35.4564 -79.4219 34° Northeast 387 445 10,700 -1,455 Descending Washington Center
Mon 11:46:38 AM 35.5164 -79.3661 37° Northeast 345 397 9,600 -1,500 Descending Washington Center
Mon 11:46:56 AM 35.5364 -79.3339 53° Northeast 351 404 9,200 -1,855 Descending Washington Center
Mon 11:47:33 AM 35.5547 -79.2736 69° East 336 387 7,900 -2,164 Descending Washington Center
Mon 11:47:57 AM 35.5625 -79.2281 78° East 326 375 7,000 -2,000 Descending Washington Center
Mon 11:48:27 AM 35.5728 -79.1672 78° East 325 374 6,100 -1,138 Descending Washington Center
Mon 11:48:55 AM 35.5883 -79.1347 60° Northeast 320 368 5,900 -1,200 Descending Washington Center
Mon 11:49:22 AM 35.6164 -79.0975 47° Northeast 280 322 5,000 -1,770 Descending Washington Center
Mon 11:49:56 AM 35.6444 -79.0706 38° Northeast 278 320 4,100 -632 Descending Washington Center
Mon 11:50:57 AM 35.6986 -79.0039 45° Northeast 272 313 4,000 -128 Descending Washington Center
Mon 11:51:30 AM 35.7286 -78.9669 45° Northeast 271 312 3,900 -400 Descending Washington Center
Mon 11:51:57 AM 35.7569 -78.9322 45° Northeast 272 313 3,600 -1,333 Descending Washington Center
Mon 11:52:42 AM 35.7936 -78.8878 45° Northeast 265 305 2,300 -1,579 Descending Washington Center
Mon 11:52:54 AM 35.8044 -78.8728 48° Northeast 256 295 2,100 -982 Descending Washington Center
Mon 11:53:37 AM 35.8261 -78.8456 46° Northeast 156 180 1,400 -885 Descending Washington Center
Mon 11:53:55 AM 35.8367 -78.8331 44° Northeast 210 242 1,200 -700 Descending Washington Center
Mon 11:54:37 AM 35.8542 -78.8108 46° Northeast 145 167 700 -714 Descending Washington Center
Mon 11:56:00 AM 35.8667 -78.7833 51° Northeast  Level FlightAware Approximate
Mon 12:03:00 PM 35.8776 -78.7875 51° Northeast  Level Estimated
Mon 12:04:00 PM 35.8776 -78.7875 51° Northeast  Level Estimated

Login

Don't have an account? Register now (free) for customized features, flight alerts, and more!